createdAt,value
2017-12-21T00:02:07.456Z,100280.70
2017-12-21T00:04:37.049Z,100278.12
2017-12-21T00:07:06.878Z,100275.74
2017-12-21T00:09:36.360Z,100273.09
2017-12-21T00:12:06.217Z,100268.63
2017-12-21T00:14:36.137Z,100261.91
2017-12-21T00:17:06.206Z,100261.48
2017-12-21T00:19:36.072Z,100267.75
2017-12-21T00:22:05.941Z,100259.65
2017-12-21T00:24:35.522Z,100257.90
2017-12-21T00:27:05.352Z,100262.52
2017-12-21T00:29:35.250Z,100265.41
2017-12-21T00:32:05.211Z,100259.65
2017-12-21T00:34:35.071Z,100254.75
2017-12-21T00:37:04.898Z,100249.96
2017-12-21T00:39:34.741Z,100246.64
2017-12-21T00:42:04.613Z,100248.22
2017-12-21T00:44:34.219Z,100245.73
2017-12-21T00:47:04.068Z,100241.75
2017-12-21T00:49:33.952Z,100237.97
2017-12-21T00:52:03.788Z,100244.34
2017-12-21T00:54:33.678Z,100241.02
2017-12-21T00:57:03.546Z,100240.21
2017-12-21T00:59:33.372Z,100240.17
2017-12-21T01:02:03.223Z,100238.46
2017-12-21T01:04:33.094Z,100235.88
2017-12-21T01:07:02.906Z,100236.26
2017-12-21T01:09:32.742Z,100234.92
2017-12-21T01:12:02.569Z,100228.77
2017-12-21T01:14:32.469Z,100231.02
2017-12-21T01:17:02.293Z,100227.55
2017-12-21T01:19:32.129Z,100224.64
2017-12-21T01:22:02.307Z,100230.58
2017-12-21T01:24:32.137Z,100227.52
2017-12-21T01:27:02.025Z,100228.80
2017-12-21T01:29:31.879Z,100226.43
2017-12-21T01:32:01.707Z,100225.91
2017-12-21T01:34:31.528Z,100220.94
2017-12-21T01:37:01.387Z,100227.02
2017-12-21T01:39:31.201Z,100224.54
2017-12-21T01:42:02.587Z,100233.31
2017-12-21T01:44:32.071Z,100229.41
2017-12-21T01:47:01.917Z,100230.44
2017-12-21T01:49:31.771Z,100225.90
2017-12-21T01:52:01.601Z,100230.45
2017-12-21T01:54:31.201Z,100233.84
2017-12-21T01:57:01.043Z,100230.63
2017-12-21T01:59:30.877Z,100228.77
2017-12-21T02:02:00.681Z,100231.42
2017-12-21T02:04:30.528Z,100234.98
2017-12-21T02:07:00.081Z,100227.83
2017-12-21T02:09:29.917Z,100224.68
2017-12-21T02:11:59.519Z,100218.34
2017-12-21T02:14:29.356Z,100214.53
2017-12-21T02:16:59.176Z,100215.23
2017-12-21T02:19:29.011Z,100212.79
2017-12-21T02:21:58.508Z,100209.68
2017-12-21T02:24:28.008Z,100203.17
2017-12-21T02:26:57.517Z,100198.98
2017-12-21T02:29:27.005Z,100197.59
2017-12-21T02:31:56.516Z,100200.20
2017-12-21T02:34:26.094Z,100203.59
2017-12-21T02:36:55.952Z,100202.20
2017-12-21T02:39:25.836Z,100192.27
2017-12-21T02:41:55.676Z,100202.16
2017-12-21T02:44:25.200Z,100198.28
2017-12-21T02:46:54.774Z,100193.91
2017-12-21T02:49:24.278Z,100193.53
2017-12-21T02:51:53.814Z,100203.04
2017-12-21T02:54:23.285Z,100201.08
2017-12-21T02:56:52.795Z,100203.46
2017-12-21T02:59:22.318Z,100197.27
2017-12-21T03:01:51.868Z,100202.16
2017-12-21T03:04:21.359Z,100206.88
2017-12-21T03:06:50.608Z,100208.55
2017-12-21T03:09:20.134Z,100209.88
2017-12-21T03:11:49.377Z,100201.28
2017-12-21T03:14:19.257Z,100205.05
2017-12-21T03:16:48.910Z,100211.59
2017-12-21T03:19:18.761Z,100212.19
2017-12-21T03:21:48.605Z,100215.31
2017-12-21T03:24:18.455Z,100208.94
2017-12-21T03:26:48.289Z,100183.91
2017-12-21T03:29:18.106Z,100213.34
2017-12-21T03:31:47.943Z,100203.23
2017-12-21T03:34:17.884Z,100204.28
2017-12-21T03:36:47.713Z,100203.13
2017-12-21T03:39:17.561Z,100212.05
2017-12-21T03:41:47.404Z,100207.18
2017-12-21T03:44:17.264Z,100215.23
2017-12-21T03:46:46.774Z,100214.39
2017-12-21T03:49:16.706Z,100218.12
2017-12-21T03:51:46.537Z,100223.66
2017-12-21T03:54:16.403Z,100212.95
2017-12-21T03:56:45.936Z,100204.38
2017-12-21T03:59:15.870Z,100207.98
2017-12-21T04:01:45.693Z,100217.39
2017-12-21T04:04:15.592Z,100211.47
2017-12-21T04:06:45.087Z,100215.22
2017-12-21T04:09:14.907Z,100217.03
2017-12-21T04:11:44.729Z,100211.13
2017-12-21T04:14:14.666Z,100205.82
2017-12-21T04:16:44.493Z,100200.32
2017-12-21T04:19:14.307Z,100210.09
2017-12-21T04:21:44.467Z,100211.55
2017-12-21T04:24:14.428Z,100208.59
2017-12-21T04:26:44.301Z,100207.02
2017-12-21T04:29:14.144Z,100197.09
2017-12-21T04:31:44.049Z,100196.73
2017-12-21T04:34:13.917Z,100195.44
2017-12-21T04:36:43.756Z,100199.92
2017-12-21T04:39:13.887Z,100191.84
2017-12-21T04:41:44.109Z,100182.67
2017-12-21T04:44:13.988Z,100175.77
2017-12-21T04:46:43.937Z,100174.59
2017-12-21T04:49:13.966Z,100174.05
2017-12-21T04:51:43.832Z,100165.30
2017-12-21T04:54:13.916Z,100165.26
2017-12-21T04:56:43.921Z,100173.41
2017-12-21T04:59:13.888Z,100160.60
2017-12-21T05:01:43.711Z,100171.77
2017-12-21T05:04:13.681Z,100175.48
2017-12-21T05:06:43.613Z,100178.88
2017-12-21T05:09:13.446Z,100180.55
2017-12-21T05:11:43.286Z,100179.33
2017-12-21T05:14:13.147Z,100194.17
2017-12-21T05:16:43.023Z,100195.94
2017-12-21T05:19:12.873Z,100209.73
2017-12-21T05:21:42.765Z,100207.39
2017-12-21T05:24:12.641Z,100202.86
2017-12-21T05:26:42.570Z,100212.02
2017-12-21T05:29:12.475Z,100212.69
2017-12-21T05:31:42.288Z,100222.47
2017-12-21T05:34:12.151Z,100220.22
2017-12-21T05:36:41.977Z,100229.95
2017-12-21T05:39:11.880Z,100233.25
2017-12-21T05:41:41.806Z,100233.30
2017-12-21T05:44:11.710Z,100222.27
2017-12-21T05:46:41.649Z,100218.62
2017-12-21T05:49:11.545Z,100222.64
2017-12-21T05:51:42.190Z,100225.79
2017-12-21T05:54:12.080Z,100225.12
2017-12-21T05:56:42.035Z,100227.95
2017-12-21T05:59:12.018Z,100229.88
2017-12-21T06:01:42.316Z,100231.70
2017-12-21T06:04:12.256Z,100230.30
2017-12-21T06:06:42.574Z,100228.13
2017-12-21T06:09:17.354Z,100229.12
2017-12-21T06:11:47.418Z,100228.56
2017-12-21T06:14:17.840Z,100230.52
2017-12-21T06:16:48.017Z,100237.95
2017-12-21T06:19:18.399Z,100231.48
2017-12-21T06:21:48.275Z,100233.03
2017-12-21T06:24:18.123Z,100235.95
2017-12-21T06:26:48.747Z,100233.25
2017-12-21T06:29:18.934Z,100230.14
2017-12-21T06:34:26.798Z,100234.41
2017-12-21T06:37:01.706Z,100237.08
2017-12-21T06:39:32.940Z,100238.23
2017-12-21T06:42:02.911Z,100229.28
2017-12-21T06:44:32.906Z,100232.48
2017-12-21T06:47:02.906Z,100226.26
2017-12-21T06:49:34.922Z,100222.59
2017-12-21T06:52:05.183Z,100235.55
2017-12-21T06:54:35.022Z,100232.89
2017-12-21T06:57:06.900Z,100237.97
2017-12-21T06:59:36.786Z,100226.08
2017-12-21T07:02:06.721Z,100230.06
2017-12-21T07:04:36.729Z,100236.78
2017-12-21T07:07:06.684Z,100240.00
2017-12-21T07:12:13.400Z,100233.32
2017-12-21T07:17:30.171Z,100228.67
2017-12-21T07:20:04.378Z,100227.06
2017-12-21T07:22:34.753Z,100232.72
2017-12-21T07:25:08.455Z,100235.73
2017-12-21T07:27:38.381Z,100227.19
2017-12-21T07:32:49.885Z,100231.48
2017-12-21T07:35:23.066Z,100230.81
2017-12-21T07:37:53.742Z,100235.17
2017-12-21T07:40:24.839Z,100237.97
2017-12-21T07:42:56.427Z,100246.95
2017-12-21T07:45:27.175Z,100239.16
2017-12-21T07:47:59.567Z,100243.25
2017-12-21T07:50:29.746Z,100231.72
2017-12-21T07:55:35.041Z,100233.61
2017-12-21T07:58:09.732Z,100235.77
2017-12-21T08:00:39.669Z,100237.91
2017-12-21T08:03:09.722Z,100237.41
2017-12-21T08:05:39.834Z,100245.97
2017-12-21T08:08:12.047Z,100247.45
2017-12-21T08:10:42.192Z,100241.60
2017-12-21T08:13:13.828Z,100238.66
2017-12-21T08:15:44.211Z,100246.64
2017-12-21T08:18:14.139Z,100248.05
2017-12-21T08:23:19.485Z,100240.13
2017-12-21T08:25:49.657Z,100246.88
2017-12-21T08:28:19.414Z,100244.90
2017-12-21T08:30:49.329Z,100237.20
2017-12-21T08:33:19.426Z,100241.25
2017-12-21T08:35:50.336Z,100231.95
2017-12-21T08:38:20.691Z,100231.95
2017-12-21T08:40:54.960Z,100236.16
2017-12-21T08:43:24.526Z,100236.17
2017-12-21T08:45:54.529Z,100237.39
2017-12-21T08:48:24.548Z,100236.84
2017-12-21T08:53:34.537Z,100232.72
2017-12-21T08:56:05.177Z,100236.84
2017-12-21T09:01:16.523Z,100236.22
2017-12-21T09:03:46.820Z,100229.72
2017-12-21T09:06:16.780Z,100236.36
2017-12-21T09:11:21.366Z,100228.13
2017-12-21T09:14:09.127Z,100232.05
2017-12-21T09:19:13.634Z,100228.86
2017-12-21T09:21:43.518Z,100233.34
2017-12-21T09:26:49.024Z,100223.02
2017-12-21T09:32:01.203Z,100222.88
2017-12-21T09:34:31.170Z,100213.73
2017-12-21T09:37:01.134Z,100198.80
2017-12-21T09:39:31.063Z,100207.44
2017-12-21T09:42:00.960Z,100210.31
2017-12-21T09:44:35.063Z,100204.64
2017-12-21T09:47:08.795Z,100206.78
2017-12-21T09:49:43.955Z,100205.66
2017-12-21T09:52:18.043Z,100201.95
2017-12-21T09:54:55.121Z,100199.47
2017-12-21T09:57:25.137Z,100192.38
2017-12-21T10:02:43.866Z,100194.41
2017-12-21T10:07:57.340Z,100188.32
2017-12-21T10:18:22.262Z,100178.28
2017-12-21T10:21:03.274Z,100175.10
2017-12-21T10:23:33.245Z,100167.45
2017-12-21T10:26:21.758Z,100162.83
2017-12-21T10:28:51.511Z,100160.58
2017-12-21T10:31:24.015Z,100152.19
2017-12-21T10:34:11.194Z,100150.36
2017-12-21T10:46:39.256Z,100145.39
2017-12-21T10:49:19.528Z,100134.63
2017-12-21T10:51:57.776Z,100124.44
2017-12-21T10:54:35.652Z,100126.95
2017-12-21T10:59:42.642Z,100126.13
2017-12-21T11:02:16.207Z,100120.14
2017-12-21T11:04:46.916Z,100114.75
2017-12-21T11:07:17.684Z,100111.10
2017-12-21T11:09:49.444Z,100107.94
2017-12-21T11:12:23.093Z,100098.48
2017-12-21T11:14:59.181Z,100093.80
2017-12-21T11:17:32.498Z,100094.80
2017-12-21T11:22:36.877Z,100091.58
2017-12-21T11:25:07.678Z,100090.48
2017-12-21T11:27:40.467Z,100094.25
2017-12-21T11:30:12.373Z,100090.32
2017-12-21T11:32:46.948Z,100093.77
2017-12-21T11:35:20.844Z,100096.90
2017-12-21T11:37:50.750Z,100092.59
2017-12-21T11:40:21.367Z,100082.64
2017-12-21T11:42:55.135Z,100085.81
2017-12-21T11:45:25.030Z,100084.00
2017-12-21T11:47:57.197Z,100068.61
2017-12-21T11:50:27.157Z,100072.85
2017-12-21T11:58:07.529Z,100046.80
2017-12-21T12:03:11.280Z,100047.71
2017-12-21T12:05:41.682Z,100048.21
2017-12-21T12:08:11.512Z,100039.88
2017-12-21T12:10:42.897Z,100033.07
2017-12-21T12:13:13.607Z,100035.81
2017-12-21T12:15:45.267Z,100033.98
2017-12-21T12:18:16.655Z,100020.41
2017-12-21T12:20:47.970Z,100019.19
2017-12-21T12:25:54.328Z,100014.20
2017-12-21T12:28:25.742Z,100018.77
2017-12-21T12:30:55.951Z,100023.84
2017-12-21T12:33:31.665Z,100025.69
2017-12-21T12:38:41.105Z,100021.58
2017-12-21T12:41:12.861Z,100006.78
2017-12-21T12:43:42.842Z,100018.84
2017-12-21T12:46:13.082Z,100008.53
2017-12-21T12:48:49.616Z,100002.29
2017-12-21T12:51:21.007Z,100002.78
2017-12-21T12:53:55.423Z,100001.67
2017-12-21T13:01:44.910Z,99991.48
2017-12-21T13:04:17.604Z,99996.98
2017-12-21T13:09:24.415Z,99975.91
2017-12-21T13:11:58.657Z,99977.98
2017-12-21T13:14:31.799Z,99971.63
2017-12-21T13:17:01.900Z,99976.93
2017-12-21T13:19:31.810Z,99976.19
2017-12-21T13:22:02.242Z,99974.27
2017-12-21T13:27:14.095Z,99970.14
2017-12-21T13:32:23.740Z,99967.36
2017-12-21T13:34:53.425Z,99970.25
2017-12-21T13:37:23.868Z,99967.01
2017-12-21T13:39:56.258Z,99977.83
2017-12-21T13:42:27.674Z,99976.08
2017-12-21T13:44:57.500Z,99989.67
2017-12-21T13:47:27.675Z,99988.92
2017-12-21T13:49:57.513Z,99989.34
2017-12-21T13:52:27.740Z,99995.01
2017-12-21T13:54:57.698Z,99991.35
2017-12-21T13:57:31.328Z,99992.56
2017-12-21T14:00:00.998Z,99989.09
2017-12-21T14:02:30.962Z,100003.33
2017-12-21T14:05:00.603Z,100000.08
2017-12-21T14:07:30.512Z,100004.98
2017-12-21T14:10:01.922Z,100010.16
2017-12-21T14:12:35.109Z,100006.73
2017-12-21T14:17:41.961Z,100011.16
2017-12-21T14:20:13.498Z,100001.19
2017-12-21T14:22:47.562Z,100006.44
2017-12-21T14:25:19.365Z,100001.53
2017-12-21T14:27:49.373Z,99998.86
2017-12-21T14:30:27.539Z,99998.03
2017-12-21T14:32:59.332Z,100003.36
2017-12-21T14:35:29.440Z,100002.71
2017-12-21T14:38:01.812Z,99997.80
2017-12-21T14:40:31.846Z,99999.05
2017-12-21T14:43:01.864Z,100000.46
2017-12-21T14:45:32.018Z,100005.52
2017-12-21T14:48:12.781Z,100000.72
2017-12-21T14:50:42.801Z,100000.80
2017-12-21T14:53:12.975Z,99994.06
2017-12-21T14:55:49.513Z,99998.88
2017-12-21T14:58:19.412Z,99994.20
2017-12-21T15:00:50.417Z,100002.11
2017-12-21T15:03:24.520Z,100009.44
2017-12-21T15:05:55.725Z,99986.80
2017-12-21T15:08:29.613Z,99994.72
2017-12-21T15:11:02.717Z,99998.19
2017-12-21T15:13:32.756Z,99993.53
2017-12-21T15:16:05.364Z,99995.21
2017-12-21T15:18:35.673Z,99993.52
2017-12-21T15:21:10.084Z,100000.52
2017-12-21T15:29:15.151Z,99998.86
2017-12-21T15:31:51.514Z,100001.36
2017-12-21T15:34:23.507Z,99989.30
2017-12-21T15:36:55.034Z,99997.42
2017-12-21T15:39:26.039Z,99996.36
2017-12-21T15:44:31.845Z,99999.99
2017-12-21T15:47:01.912Z,99997.98
2017-12-21T15:49:31.822Z,99996.83
2017-12-21T15:52:01.888Z,100003.28
2017-12-21T15:54:32.296Z,100001.56
2017-12-21T15:57:02.236Z,100001.58
2017-12-21T15:59:32.120Z,100004.23
2017-12-21T16:02:04.569Z,100012.72
2017-12-21T16:04:35.491Z,100006.29
2017-12-21T16:07:10.415Z,100004.34
2017-12-21T16:09:44.286Z,100005.55
2017-12-21T16:12:14.658Z,100006.56
2017-12-21T16:14:44.773Z,100007.39
2017-12-21T16:19:53.458Z,100008.13
2017-12-21T16:22:25.761Z,100009.23
2017-12-21T16:24:58.736Z,100005.55
2017-12-21T16:27:31.797Z,100014.70
2017-12-21T16:30:01.736Z,100018.02
2017-12-21T16:37:39.792Z,100024.28
2017-12-21T16:40:09.698Z,100021.95
2017-12-21T16:42:43.168Z,100027.02
2017-12-21T16:45:16.774Z,100025.11
2017-12-21T16:47:46.711Z,100026.13
2017-12-21T16:50:17.328Z,100028.52
2017-12-21T16:52:47.884Z,100030.94
2017-12-21T16:55:17.966Z,100029.28
2017-12-21T16:57:48.070Z,100032.36
2017-12-21T17:00:19.103Z,100029.95
2017-12-21T17:02:50.534Z,100040.23
2017-12-21T17:05:24.733Z,100036.44
2017-12-21T17:07:55.683Z,100036.94
2017-12-21T17:10:25.610Z,100031.20
2017-12-21T17:12:58.934Z,100038.09
2017-12-21T17:15:36.158Z,100048.09
2017-12-21T17:18:06.182Z,100038.21
2017-12-21T17:20:36.998Z,100033.96
2017-12-21T17:23:08.410Z,100036.27
2017-12-21T17:25:40.390Z,100039.28
2017-12-21T17:28:11.179Z,100038.78
2017-12-21T17:30:41.308Z,100031.78
2017-12-21T17:33:11.166Z,100036.19
2017-12-21T17:35:41.624Z,100028.88
2017-12-21T17:38:11.639Z,100027.37
2017-12-21T17:40:41.695Z,100033.80
2017-12-21T17:43:11.630Z,100023.36
2017-12-21T17:45:41.597Z,100033.86
2017-12-21T17:50:53.294Z,100041.58
2017-12-21T17:56:02.021Z,100039.75
2017-12-21T17:58:33.047Z,100047.67
2017-12-21T18:06:22.462Z,100038.20
2017-12-21T18:08:53.239Z,100041.84
2017-12-21T18:11:23.547Z,100047.17
2017-12-21T18:13:53.978Z,100034.28
2017-12-21T18:21:39.515Z,100042.92
2017-12-21T18:26:44.367Z,100051.52
2017-12-21T18:29:15.670Z,100062.55
2017-12-21T18:31:46.095Z,100064.22
2017-12-21T18:34:16.466Z,100066.39
2017-12-21T18:36:47.186Z,100068.56
2017-12-21T18:39:17.116Z,100079.05
2017-12-21T18:41:54.680Z,100082.77
2017-12-21T18:47:01.435Z,100075.56
2017-12-21T18:49:31.278Z,100072.97
2017-12-21T18:52:01.170Z,100073.21
2017-12-21T18:54:33.591Z,100070.54
2017-12-21T18:57:04.128Z,100075.78
2017-12-21T19:02:13.623Z,100078.11
2017-12-21T19:04:43.532Z,100080.38
2017-12-21T19:07:13.416Z,100086.09
2017-12-21T19:09:43.297Z,100097.77
2017-12-21T19:12:13.174Z,100092.86
2017-12-21T19:25:13.739Z,100114.14
2017-12-21T19:27:43.698Z,100113.50
2017-12-21T19:30:13.347Z,100102.42
2017-12-21T19:32:44.470Z,100122.13
2017-12-21T19:35:25.565Z,100118.95
2017-12-21T19:37:55.465Z,100136.28
2017-12-21T19:40:25.378Z,100139.63
2017-12-21T19:42:55.896Z,100132.03
2017-12-21T19:48:02.582Z,100123.05
2017-12-21T19:50:32.159Z,100126.55
2017-12-21T19:53:02.096Z,100131.55
2017-12-21T19:55:31.836Z,100121.57
2017-12-21T19:58:04.483Z,100129.19
2017-12-21T20:00:36.328Z,100129.86
2017-12-21T20:03:06.130Z,100127.27
2017-12-21T20:05:36.375Z,100124.47
2017-12-21T20:08:07.754Z,100135.93
2017-12-21T20:10:41.558Z,100135.95
2017-12-21T20:13:11.433Z,100135.34
2017-12-21T20:15:41.351Z,100140.80
2017-12-21T20:18:11.254Z,100140.67
2017-12-21T20:20:42.673Z,100144.16
2017-12-21T20:23:13.162Z,100150.48
2017-12-21T20:25:43.054Z,100161.45
2017-12-21T20:28:12.857Z,100160.31
2017-12-21T20:30:42.919Z,100152.34
2017-12-21T20:36:03.473Z,100157.08
2017-12-21T20:38:33.328Z,100169.37
2017-12-21T20:41:06.801Z,100179.19
2017-12-21T20:43:43.355Z,100173.77
2017-12-21T20:46:23.646Z,100164.31
2017-12-21T20:48:54.676Z,100164.39
2017-12-21T20:53:59.389Z,100184.27
2017-12-21T20:56:29.612Z,100187.58
2017-12-21T20:59:00.426Z,100191.55
2017-12-21T21:01:30.178Z,100192.55
2017-12-21T21:04:00.215Z,100189.06
2017-12-21T21:06:35.436Z,100200.39
2017-12-21T21:09:04.754Z,100197.20
2017-12-21T21:11:35.321Z,100193.71
2017-12-21T21:14:05.324Z,100196.59
2017-12-21T21:16:34.764Z,100197.93
2017-12-21T21:19:07.203Z,100202.06
2017-12-21T21:21:36.832Z,100204.88
2017-12-21T21:24:06.484Z,100201.88
2017-12-21T21:26:37.030Z,100196.41
2017-12-21T21:29:07.162Z,100202.92
2017-12-21T21:31:38.649Z,100193.68
2017-12-21T21:34:08.916Z,100191.84
2017-12-21T21:36:40.562Z,100195.61
2017-12-21T21:39:12.359Z,100192.78
2017-12-21T21:41:42.327Z,100187.73
2017-12-21T21:44:12.308Z,100183.89
2017-12-21T21:46:42.908Z,100182.94
2017-12-21T21:49:13.678Z,100186.37
2017-12-21T21:51:44.595Z,100184.02
2017-12-21T21:56:54.183Z,100184.69
2017-12-21T21:59:26.509Z,100195.23
2017-12-21T22:01:56.737Z,100198.86
2017-12-21T22:04:26.406Z,100199.45
2017-12-21T22:06:56.550Z,100194.84
2017-12-21T22:09:27.127Z,100186.68
2017-12-21T22:11:57.858Z,100188.03
2017-12-21T22:14:30.407Z,100191.62
2017-12-21T22:17:01.188Z,100193.93
2017-12-21T22:19:31.006Z,100190.27
2017-12-21T22:22:00.855Z,100193.11
2017-12-21T22:24:30.742Z,100190.73
2017-12-21T22:27:00.899Z,100181.76
2017-12-21T22:29:31.023Z,100192.91
2017-12-21T22:32:01.122Z,100187.33
2017-12-21T22:34:31.050Z,100191.31
2017-12-21T22:37:01.156Z,100185.91
2017-12-21T22:39:31.080Z,100189.51
2017-12-21T22:42:02.816Z,100184.15
2017-12-21T22:44:33.314Z,100183.47
2017-12-21T22:47:03.578Z,100175.66
2017-12-21T22:49:33.785Z,100181.34
2017-12-21T22:52:04.014Z,100176.17
2017-12-21T22:54:34.024Z,100175.57
2017-12-21T22:57:04.554Z,100179.87
2017-12-21T22:59:34.603Z,100174.17
2017-12-21T23:02:04.610Z,100174.89
2017-12-21T23:04:34.498Z,100177.32
2017-12-21T23:07:05.829Z,100179.74
2017-12-21T23:09:36.439Z,100177.63
2017-12-21T23:12:06.623Z,100171.19
2017-12-21T23:14:37.093Z,100174.36
2017-12-21T23:17:07.126Z,100166.05
2017-12-21T23:19:37.006Z,100156.66
2017-12-21T23:22:06.903Z,100163.03
2017-12-21T23:24:37.135Z,100161.38
2017-12-21T23:27:06.782Z,100163.68
2017-12-21T23:29:36.991Z,100155.53
2017-12-21T23:32:07.033Z,100159.60
2017-12-21T23:34:37.260Z,100162.98
2017-12-21T23:37:07.503Z,100164.98
2017-12-21T23:39:37.740Z,100164.33
2017-12-21T23:42:08.218Z,100163.22
2017-12-21T23:44:38.467Z,100162.70
2017-12-21T23:47:08.299Z,100164.02
2017-12-21T23:49:38.162Z,100166.52
2017-12-21T23:52:08.487Z,100165.61
2017-12-21T23:54:39.006Z,100156.28
2017-12-21T23:57:09.349Z,100160.20
2017-12-21T23:59:40.275Z,100152.93
